Hlavní strana
METAR-TAF:

METAR-TAF

Letiště :

Letiště Bologna

Bologna, Itálie

zeměpisná šířka: 44-32N, zeměpisná délka: 011-18E, výška: 36 m

Aktuální stav počasí

Zpráva byla vytvořena před 38 minutami, v 15:20 UTC
Východoseverovýchodní vítr 8 kt, proměnlivý mezi severoseverovýchodním a východním
Teplota 12°C
Vlhkost vzduchu 30%
Tlak 1029 hPa
Viditelnost 10 km a více
Žádná oblačnost pod 1500 m, nevyskytují se cumulonimby.

METAR: LIPE 201520Z 06008KT 020V090 CAVOK 12/M05 Q1029

Čas: 16:58 (15:58 UTC)

Předpověď počasí

Zpráva byla vytvořena před 4 hodinami a 58 minutami, v 11:00 UTC
Předpověď platná od 20 v 12 UTC do 21 v 12 UTC
Východní vítr 10 kt
Viditelnost 10 km a více
Polojasno ve výšce 5000 ft
Změna
od 20 v 16 UTC do 20 v 18 UTC
vítr z různých směrů 5 kt

TAF: LIPE 201100Z 2012/2112 08010KT 9999 SCT050 BECMG 2016/2018 VRB05KT

Stav a předpovědi počasí z více než 4 000 letišť (zprávy METAR a TAF).

Červené a žluté tečky na mapě představují dostupné meteorologické stanice.

Když kurzor umístíte na tečku, zobrazí se název stanice.

Pak kliknutím zobrazíte stav a předpověď počasí.

Chcete-li změnit mapu, kliknutím na zelené tlačítko se znaménkem +mapu přiblížíte, kliknutím na zelené tlačítko se znaménkem – mapu oddálíte a kliknutím na zelené šipky přejdete na sousední mapy.


METAR-TAF: